メインページ
METAR-TAF:

METAR-TAF

空港 :

グアテマラシティ, グアテマラ

ラ・アウロラ国際空港

緯度: 14-35N, 経度: 090-31W, 海抜: 1489m

現時点の気象観測

当レポートは20分前の23:00(UTC)に作成
の風 4kt
気温 18°C
湿度 94%
気圧 1024 hPa
視程: 5000m
高度1200ftの千切れ雲あり
高度2200ftの雲はほとんどない, 積乱雲.
高度9000ftの雲は散在している
激しい雷雨, 雨

METAR: MGGT 272300Z 18004KT 5000 TS RA BKN012 FEW022CB SCT090 18/17 Q1024 A3024 CB/TS/LTNG/SE/S/SBR STN

時間: 17:20 (23:20 UTC)

予報

当レポートは6時間20分前の17:00(UTC)に作成
予報は27日の 18時(UTC)から 28日の 18時(UTC)まで有効
の風 8kt
視程10km以上
高度1800ftの雲は散在している
高度10000ftの千切れ雲あり
27日の 18時(UTC)から 28日の 06時(UTC)まで一時的に
南/南東の風 12kt
視程: 8000m
高度2000ftの雲は散在している, 塔状積雲.
高度2500ftの雲は散在している, 積乱雲.
激しい雷雨, 雨
28日の 01時(UTC)から 28日の 03時(UTC)まで徐々に
の風 6kt
視程: 8000m
高度1600ftの千切れ雲あり
確率 40% :
28日の 06時(UTC)から 28日の 18時(UTC)まで一時的に
変向風 3kt
視程: 5000m
高度1400ftの千切れ雲あり
靄, 雨, 霧雨
28日の 15時(UTC)から 28日の 17時(UTC)まで一時的に
の風 8kt
高度1800ftの千切れ雲あり

TAF: MGGT 271700Z 2718/2818 18008KT 9999 SCT018 BKN100 TX27/2720Z TN18/2812Z TEMPO 2718/2806 15012KT 8000 TSRA SCT020TCU SCT025CB BECMG 2801/2803 36006KT 8000 BKN016 PROB40 TEMPO 2806/2818 VRB03KT 5000 BR RADZ BKN014 TEMPO 2815/2817 18008KT BKN018

4,000以上の空港の気象観測と天気予報(METAR報とTAF報)

利用可能な観測所は地図上に黄色い丸と赤い丸で示す。

丸の上にカーソルを重ねると観測所名を参照できる。

次にクリックすると気象観測と天気予報を参照できる。

マップの切り替え:黒色「×」印の緑ボタンをクリックして拡大、「-」印の緑ボタンをクリックして縮小、緑色の三角印をクリックして隣りの地図に切り替え


METAR-TAF: